Time;durP1;ratioP1;P1;durP2;ratioP2;P2;SDS_P1;SDS_P2;PMS_P1;PMS_P2;Temp;Humidity;BMP_temperature;BMP_pressure;BME280_temperature;BME280_humidity;BME280_pressure;Samples;Min_cycle;Max_cycle;Signal;HPM_P1;HPM_P2
2021/10/23 00:01:00;;;;;;;6.95;2.50;;;;;;;7.23;54.20;98253.28;4897146;29;20194;-86
2021/10/23 00:03:26;;;;;;;5.75;1.90;;;;;;;6.95;54.04;98203.81;4898247;29;20185;-87
2021/10/23 00:05:54;;;;;;;8.32;2.17;;;;;;;7.25;54.18;98239.38;4898586;29;20051;-94
2021/10/23 00:08:20;;;;;;;8.80;2.38;;;;;;;7.16;54.24;98228.50;4897790;29;20049;-85
2021/10/23 00:10:47;;;;;;;7.47;2.15;;;;;;;7.15;54.54;98221.47;4897147;29;20581;-85
2021/10/23 00:13:13;;;;;;;7.43;2.05;;;;;;;7.29;54.21;98253.94;4897809;29;20049;-87
2021/10/23 00:15:40;;;;;;;4.55;1.92;;;;;;;7.09;54.60;98221.94;4878108;29;20061;-85
2021/10/23 00:18:07;;;;;;;8.55;2.20;;;;;;;7.00;54.36;98213.75;4897788;29;20502;-86
2021/10/23 00:20:33;;;;;;;8.07;2.42;;;;;;;7.11;54.45;98234.06;4899392;29;20143;-86
2021/10/23 00:22:59;;;;;;;12.50;2.17;;;;;;;7.05;54.84;98217.13;4899393;29;20040;-85
2021/10/23 00:25:27;;;;;;;3.97;2.00;;;;;;;7.34;54.87;98252.97;4899418;29;20127;-85
2021/10/23 00:27:56;;;;;;;4.97;2.22;;;;;;;7.12;54.86;98227.53;4899102;29;20041;-91
2021/10/23 00:30:24;;;;;;;9.85;2.35;;;;;;;7.17;54.94;98227.38;4899850;29;20581;-93
2021/10/23 00:33:15;;;;;;;9.40;2.08;;;;;;;7.03;54.81;98194.09;4899799;29;20145;-90
2021/10/23 00:35:42;;;;;;;7.85;2.00;;;;;;;7.01;54.61;98199.03;4899798;29;20438;-85
2021/10/23 00:38:08;;;;;;;3.28;1.80;;;;;;;7.14;54.96;98225.28;4887440;29;20055;-85
2021/10/23 00:40:35;;;;;;;7.15;2.50;;;;;;;7.23;55.17;98242.41;4892361;29;20055;-86
2021/10/23 00:43:01;;;;;;;4.88;2.10;;;;;;;7.11;55.00;98215.06;4901487;29;20046;-91
2021/10/23 00:45:27;;;;;;;9.55;2.80;;;;;;;7.35;55.30;98230.09;4884781;29;20047;-85
2021/10/23 00:47:53;;;;;;;9.90;2.20;;;;;;;7.16;55.12;98205.97;4901485;29;20048;-86
2021/10/23 00:50:23;;;;;;;8.45;2.28;;;;;;;7.30;55.44;98250.09;4908437;29;20068;-84
2021/10/23 00:52:50;;;;;;;5.35;1.92;;;;;;;7.18;55.40;98217.31;4914645;29;20055;-84
2021/10/23 00:55:19;;;;;;;7.05;2.38;;;;;;;7.36;55.23;98242.59;4909119;29;20036;-85
2021/10/23 00:57:45;;;;;;;7.68;2.20;;;;;;;7.18;55.17;98207.22;4901109;29;20040;-86
2021/10/23 01:00:12;;;;;;;5.65;2.00;;;;;;;7.30;55.30;98239.22;4893743;29;20053;-85
2021/10/23 01:02:39;;;;;;;7.13;2.30;;;;;;;7.37;55.33;98255.06;4879955;29;20578;-92
2021/10/23 01:05:08;;;;;;;7.65;2.72;;;;;;;7.34;55.55;98236.69;4864113;29;20696;-87
2021/10/23 01:07:35;;;;;;;8.07;2.22;;;;;;;7.20;55.15;98213.16;4857619;29;20045;-85
2021/10/23 01:10:06;;;;;;;11.85;2.63;;;;;;;7.28;55.19;98242.28;4895598;29;20059;-86
2021/10/23 01:12:34;;;;;;;8.90;2.45;;;;;;;7.27;55.28;98220.84;4899144;29;20053;-86
2021/10/23 01:15:17;;;;;;;5.57;2.20;;;;;;;7.21;55.37;98209.31;4898019;29;20191;-86
2021/10/23 01:17:45;;;;;;;4.68;2.17;;;;;;;7.44;55.14;98258.91;4898490;29;20202;-85
2021/10/23 01:20:11;;;;;;;5.78;2.17;;;;;;;7.48;54.94;98254.47;4899328;29;20048;-86
2021/10/23 01:22:38;;;;;;;10.82;2.17;;;;;;;7.52;54.82;98255.41;4899770;29;20495;-86
2021/10/23 01:25:04;;;;;;;8.27;2.42;;;;;;;7.45;55.14;98229.78;4901804;29;20072;-86
2021/10/23 01:27:32;;;;;;;4.53;2.17;;;;;;;7.36;54.78;98223.56;4901832;29;20040;-86
2021/10/23 01:29:59;;;;;;;10.97;2.47;;;;;;;7.58;54.94;98261.47;4900802;29;20048;-85
2021/10/23 01:32:26;;;;;;;;;;;;;;;7.53;54.91;98258.94;4898451;29;20139;-93
2021/10/23 01:35:18;;;;;;;11.02;2.50;;;;;;;7.50;55.35;98263.09;4899776;29;19958;-86
2021/10/23 01:37:47;;;;;;;10.95;2.33;;;;;;;7.52;55.30;98254.63;4898560;29;20056;-85
2021/10/23 01:40:18;;;;;;;8.75;2.28;;;;;;;7.53;55.12;98262.44;4899397;29;20048;-94
2021/10/23 01:42:46;;;;;;;4.57;2.20;;;;;;;7.54;54.90;98255.09;4898053;29;20157;-86
2021/10/23 01:45:13;;;;;;;10.80;2.78;;;;;;;7.60;54.89;98245.66;4866745;29;20049;-92
2021/10/23 01:47:40;;;;;;;6.47;2.13;;;;;;;7.54;54.85;98236.06;4898754;29;20139;-86
2021/10/23 01:50:14;;;;;;;6.55;2.13;;;;;;;7.67;54.71;98259.56;4898119;29;20064;-90
2021/10/23 01:52:40;;;;;;;4.20;1.90;;;;;;;7.48;54.43;98230.00;4866755;29;20517;-93
2021/10/23 01:55:09;;;;;;;10.35;2.50;;;;;;;7.61;54.89;98249.97;4899025;29;20519;-93
2021/10/23 01:57:39;;;;;;;5.85;2.13;;;;;;;7.53;54.91;98218.94;4882691;29;20047;-86
2021/10/23 02:00:09;;;;;;;8.88;2.40;;;;;;;7.64;54.92;98222.13;4867243;29;20063;-87
2021/10/23 02:02:39;;;;;;;7.25;2.20;;;;;;;7.61;54.65;98224.69;4899638;29;20037;-85
2021/10/23 02:05:07;;;;;;;9.48;2.38;;;;;;;7.51;54.54;98206.78;4866032;29;20072;-86
2021/10/23 02:07:33;;;;;;;6.95;2.08;;;;;;;7.66;54.26;98233.50;4898398;29;20032;-89
2021/10/23 02:09:59;;;;;;;9.70;2.67;;;;;;;7.58;54.74;98215.25;4898235;29;20470;-92
2021/10/23 02:12:46;;;;;;;4.63;2.30;;;;;;;7.86;54.27;98259.25;4897858;29;20060;-84
2021/10/23 02:15:12;;;;;;;9.25;2.35;;;;;;;7.83;54.23;98240.84;4842297;29;20704;-85
2021/10/23 02:17:38;;;;;;;5.70;2.20;;;;;;;7.70;54.10;98226.28;4842719;29;20579;-86
2021/10/23 02:20:09;;;;;;;10.45;2.28;;;;;;;7.77;54.25;98231.25;4841026;29;20086;-93
2021/10/23 02:22:38;;;;;;;5.90;2.28;;;;;;;7.80;54.40;98243.41;4840239;29;20051;-85
2021/10/23 02:25:06;;;;;;;6.30;2.47;;;;;;;7.63;54.40;98209.66;4835108;29;20465;-92
2021/10/23 02:27:35;;;;;;;6.22;2.55;;;;;;;7.73;54.27;98227.56;4839985;29;20053;-85
2021/10/23 02:30:03;;;;;;;15.32;4.93;;;;;;;7.74;54.40;98232.69;4810450;29;20057;-85
2021/10/23 02:32:35;;;;;;;5.88;2.40;;;;;;;7.94;54.46;98265.81;4825452;29;20136;-92
2021/10/23 02:35:02;;;;;;;8.57;2.58;;;;;;;7.75;54.45;98225.34;4808345;29;20050;-91
2021/10/23 02:37:30;;;;;;;6.85;2.78;;;;;;;7.90;54.44;98245.81;4826695;29;20145;-85
2021/10/23 02:39:56;;;;;;;8.90;2.77;;;;;;;7.95;54.08;98248.38;4841821;29;20669;-93
2021/10/23 02:42:23;;;;;;;6.60;2.80;;;;;;;7.81;53.96;98223.25;4841208;29;20042;-92
2021/10/23 02:44:50;;;;;;;8.05;2.60;;;;;;;8.00;54.34;98259.09;4839823;29;20053;-85
2021/10/23 02:47:16;;;;;;;9.07;2.88;;;;;;;7.81;54.48;98231.41;4841552;29;20066;-91
2021/10/23 02:49:42;;;;;;;8.18;2.70;;;;;;;7.98;54.32;98248.53;4840985;29;20049;-85
2021/10/23 02:52:08;;;;;;;6.97;2.83;;;;;;;7.98;54.06;98256.69;4867112;29;20056;-92
2021/10/23 02:54:34;;;;;;;9.13;3.17;;;;;;;7.98;54.69;98250.47;4897008;29;20043;-85
2021/10/23 02:57:00;;;;;;;8.48;3.03;;;;;;;7.95;54.37;98243.72;4880979;29;20427;-85
2021/10/23 02:59:27;;;;;;;5.63;2.50;;;;;;;7.96;54.19;98250.78;4866477;29;20048;-85
2021/10/23 03:01:54;;;;;;;6.65;2.58;;;;;;;7.98;54.58;98259.41;4862860;29;20134;-93
2021/10/23 03:04:20;;;;;;;9.25;3.03;;;;;;;7.89;54.26;98257.81;4879342;29;20682;-84
2021/10/23 03:06:46;;;;;;;10.68;2.72;;;;;;;7.63;54.15;98214.31;4884907;29;20096;-85
2021/10/23 03:09:16;;;;;;;13.45;3.00;;;;;;;7.74;54.23;98229.97;4896723;29;20044;-91
2021/10/23 03:11:42;;;;;;;9.70;2.78;;;;;;;7.81;54.26;98229.47;4897159;29;20048;-91
2021/10/23 03:14:10;;;;;;;7.00;2.85;;;;;;;7.90;54.26;98241.16;4898613;29;20043;-92
2021/10/23 03:16:36;;;;;;;13.47;3.00;;;;;;;7.96;54.42;98255.41;4894728;29;20052;-86
2021/10/23 03:19:03;;;;;;;11.82;2.80;;;;;;;7.88;54.10;98239.88;4879170;29;20335;-85
2021/10/23 03:21:31;;;;;;;19.33;3.15;;;;;;;8.06;54.35;98271.41;4879093;29;20041;-90
2021/10/23 03:23:58;;;;;;;19.88;3.22;;;;;;;7.86;54.47;98248.38;4862344;29;20045;-86
2021/10/23 03:26:24;;;;;;;10.43;3.15;;;;;;;7.99;54.28;98277.34;4882899;29;20048;-85
2021/10/23 03:28:50;;;;;;;15.63;3.55;;;;;;;7.82;54.50;98244.72;4898111;29;20040;-86
2021/10/23 03:31:16;;;;;;;9.77;3.47;;;;;;;7.74;54.43;98226.44;4867034;29;20049;-86
2021/10/23 03:33:44;;;;;;;10.48;3.58;;;;;;;7.65;54.70;98217.50;4878735;29;20033;-92
2021/10/23 03:36:10;;;;;;;10.10;3.35;;;;;;;7.92;54.80;98251.75;4880101;29;20132;-84
2021/10/23 03:38:36;;;;;;;12.65;3.40;;;;;;;7.83;54.56;98245.50;4863280;29;20267;-93
2021/10/23 03:41:02;;;;;;;10.30;3.10;;;;;;;7.95;55.04;98270.94;4897321;29;20052;-93
2021/10/23 03:43:28;;;;;;;12.43;4.25;;;;;;;7.90;54.60;98259.41;4897834;29;20506;-85
2021/10/23 03:46:00;;;;;;;12.00;5.03;;;;;;;7.83;54.83;98251.72;4879557;29;20108;-86
2021/10/23 03:48:27;;;;;;;17.48;7.40;;;;;;;7.81;54.65;98255.91;4898706;29;20052;-86
2021/10/23 03:50:53;;;;;;;14.07;5.38;;;;;;;7.78;54.83;98251.88;4897044;29;20036;-92
2021/10/23 03:53:20;;;;;;;15.13;4.90;;;;;;;7.66;54.96;98238.16;4897417;29;20740;-85
2021/10/23 03:55:46;;;;;;;15.05;3.78;;;;;;;7.80;55.09;98263.25;4897869;29;20049;-87
2021/10/23 03:58:14;;;;;;;16.38;3.70;;;;;;;7.87;55.36;98281.81;4899379;29;20498;-86
2021/10/23 04:00:40;;;;;;;11.55;3.80;;;;;;;7.83;55.61;98268.06;4864404;29;20112;-85
2021/10/23 04:03:06;;;;;;;14.75;3.85;;;;;;;7.91;55.18;98275.44;4880124;29;20053;-92
2021/10/23 04:05:56;;;;;;;7.72;3.22;;;;;;;7.93;55.34;98281.34;4880249;29;20122;-92
2021/10/23 04:08:30;;;;;;;9.35;2.95;;;;;;;7.91;55.04;98285.50;4869550;29;20048;-85
2021/10/23 04:10:57;;;;;;;9.50;3.42;;;;;;;7.91;55.61;98286.31;4881119;29;20048;-86
2021/10/23 04:13:23;;;;;;;10.15;3.33;;;;;;;7.78;55.23;98265.50;4865509;29;20056;-86
2021/10/23 04:15:49;;;;;;;8.57;3.13;;;;;;;7.89;54.97;98285.84;4864968;29;20144;-86
2021/10/23 04:18:15;;;;;;;9.45;3.35;;;;;;;8.00;55.57;98286.28;4841998;29;20422;-87
2021/10/23 04:20:41;;;;;;;17.38;3.42;;;;;;;7.89;55.45;98271.44;4833574;29;20049;-93
2021/10/23 04:23:08;;;;;;;7.10;3.30;;;;;;;7.69;55.21;98254.63;4880465;29;20047;-86
2021/10/23 04:25:36;;;;;;;11.10;3.40;;;;;;;7.94;55.59;98296.53;4881585;29;20290;-85
2021/10/23 04:28:02;;;;;;;10.63;4.20;;;;;;;7.84;55.39;98279.75;4840297;29;20252;-86
2021/10/23 04:30:30;;;;;;;10.35;4.10;;;;;;;7.69;55.63;98249.19;4879736;29;20041;-86
2021/10/23 04:32:56;;;;;;;17.00;4.35;;;;;;;8.01;55.66;98304.22;4859674;29;20056;-86
2021/10/23 04:35:24;;;;;;;12.68;3.83;;;;;;;7.92;55.73;98292.56;4849892;29;20332;-86
2021/10/23 04:37:50;;;;;;;10.85;3.70;;;;;;;8.04;56.03;98300.84;4887536;29;20056;-85
2021/10/23 04:40:16;;;;;;;10.38;3.60;;;;;;;7.82;55.67;98262.97;4901470;29;20510;-87
2021/10/23 04:42:43;;;;;;;13.85;4.30;;;;;;;7.95;55.75;98292.72;4912348;29;20084;-86
2021/10/23 04:45:10;;;;;;;13.75;3.90;;;;;;;7.94;56.05;98293.03;4909077;29;20185;-86
2021/10/23 04:47:36;;;;;;;15.93;4.47;;;;;;;7.92;56.45;98281.69;4884280;29;20052;-92
2021/10/23 04:50:05;;;;;;;14.68;4.00;;;;;;;7.84;56.33;98271.56;4901447;29;20123;-85
2021/10/23 04:52:33;;;;;;;15.25;4.15;;;;;;;7.98;56.11;98302.16;4883755;29;20036;-85
2021/10/23 04:54:59;;;;;;;9.63;4.10;;;;;;;7.94;56.06;98295.75;4898417;29;20036;-91
2021/10/23 04:57:25;;;;;;;13.43;4.07;;;;;;;8.08;56.20;98310.00;4899670;29;20422;-85
2021/10/23 04:59:52;;;;;;;13.32;3.90;;;;;;;7.93;56.17;98292.22;4901138;29;20048;-85
2021/10/23 05:02:18;;;;;;;14.10;4.53;;;;;;;8.05;56.27;98302.47;4901398;29;20048;-84
2021/10/23 05:04:45;;;;;;;12.05;4.45;;;;;;;7.98;56.54;98302.16;4898606;29;20041;-86
2021/10/23 05:07:11;;;;;;;11.77;4.53;;;;;;;8.02;56.42;98311.28;4882661;29;20044;-86
2021/10/23 05:09:38;;;;;;;11.93;4.00;;;;;;;7.95;56.53;98303.59;4898940;29;20045;-85
2021/10/23 05:12:05;;;;;;;9.75;4.20;;;;;;;8.04;57.07;98313.66;4881792;29;20128;-90
2021/10/23 05:14:31;;;;;;;;;;;;;;;8.05;57.00;98320.72;4897859;29;20047;-84
2021/10/23 05:16:57;;;;;;;10.57;3.30;;;;;;;7.90;57.25;98306.47;4898335;29;19923;-83
2021/10/23 05:19:25;;;;;;;9.93;3.75;;;;;;;7.98;57.26;98319.28;4897937;29;20050;-88
2021/10/23 05:21:51;;;;;;;10.45;4.18;;;;;;;7.72;57.36;98294.00;4898786;29;20043;-84
2021/10/23 05:24:18;;;;;;;14.38;4.10;;;;;;;7.81;57.90;98324.69;4899302;29;20415;-86
2021/10/23 05:26:44;;;;;;;19.50;4.32;;;;;;;7.51;58.14;98277.47;4897281;29;20044;-84
2021/10/23 05:29:10;;;;;;;18.35;4.00;;;;;;;7.44;58.70;98290.75;4882552;29;20053;-74
2021/10/23 05:31:36;;;;;;;16.23;3.70;;;;;;;7.67;58.30;98319.41;4898768;29;20478;-73
2021/10/23 05:34:03;;;;;;;21.45;4.43;;;;;;;7.73;58.51;98323.59;4899131;29;20112;-87
2021/10/23 05:36:29;;;;;;;17.17;5.03;;;;;;;7.69;58.61;98325.34;4899366;29;20139;-73
2021/10/23 05:38:55;;;;;;;15.07;4.13;;;;;;;7.67;58.89;98327.56;4896513;29;20459;-75
2021/10/23 05:41:22;;;;;;;13.43;4.32;;;;;;;7.70;58.59;98328.84;4888110;29;20048;-73
2021/10/23 05:43:48;;;;;;;14.88;3.80;;;;;;;7.62;58.60;98310.63;4901050;29;20036;-75
2021/10/23 05:46:14;;;;;;;8.95;3.90;;;;;;;7.72;58.56;98330.16;4914928;29;20107;-74
2021/10/23 05:48:40;;;;;;;12.02;3.78;;;;;;;7.76;58.29;98335.75;4903609;29;20044;-76
2021/10/23 05:51:06;;;;;;;14.77;3.70;;;;;;;7.72;58.04;98332.88;4897547;29;20029;-78
2021/10/23 05:53:32;;;;;;;8.77;3.75;;;;;;;7.77;58.06;98340.06;4897184;29;20399;-72
2021/10/23 05:55:58;;;;;;;14.50;4.28;;;;;;;7.84;57.73;98343.09;4897795;29;20048;-72
2021/10/23 05:58:30;;;;;;;13.25;3.63;;;;;;;7.89;57.52;98348.41;4897546;29;20044;-78
2021/10/23 06:01:06;;;;;;;17.92;3.05;;;;;;;7.83;56.98;98332.56;4902377;29;20055;-77
2021/10/23 06:03:35;;;;;;;12.02;3.40;;;;;;;7.90;57.74;98339.13;4915205;29;20119;-72
2021/10/23 06:06:03;;;;;;;14.73;3.20;;;;;;;7.92;56.42;98341.53;4905159;29;20419;-75
2021/10/23 06:08:31;;;;;;;22.75;3.53;;;;;;;7.84;56.62;98334.16;4911857;29;20116;-77
2021/10/23 06:10:57;;;;;;;10.93;4.00;;;;;;;7.95;56.76;98336.25;4910435;29;20044;-73
2021/10/23 06:13:25;;;;;;;12.50;3.35;;;;;;;7.98;56.10;98330.19;4899325;29;20044;-75
2021/10/23 06:15:51;;;;;;;10.00;2.78;;;;;;;8.13;55.45;98339.78;4898367;29;20566;-90
2021/10/23 06:18:19;;;;;;;11.45;3.28;;;;;;;8.15;55.17;98325.84;4900054;29;20430;-74
2021/10/23 06:20:45;;;;;;;13.30;3.80;;;;;;;8.27;55.28;98342.31;4899010;29;20071;-74
2021/10/23 06:23:12;;;;;;;13.32;3.30;;;;;;;8.39;55.17;98341.72;4892955;29;20415;-73
2021/10/23 06:25:38;;;;;;;11.55;3.40;;;;;;;8.60;54.40;98348.06;4879232;29;20044;-75
2021/10/23 06:28:06;;;;;;;11.82;2.85;;;;;;;8.64;54.07;98350.94;4914052;29;20040;-73
2021/10/23 06:30:32;;;;;;;12.43;3.00;;;;;;;8.58;54.21;98344.88;4916804;29;20066;-78
2021/10/23 06:32:58;;;;;;;13.38;3.50;;;;;;;8.48;53.96;98345.22;4917387;29;20506;-94
2021/10/23 06:35:25;;;;;;;10.25;3.22;;;;;;;8.51;54.09;98352.75;4915904;29;20046;-74
2021/10/23 06:37:53;;;;;;;14.40;3.50;;;;;;;8.51;53.92;98357.38;4915017;29;20040;-72
2021/10/23 06:40:21;;;;;;;9.70;3.40;;;;;;;8.55;54.15;98355.63;4915759;29;20055;-72
2021/10/23 06:42:48;;;;;;;15.20;4.07;;;;;;;8.64;54.10;98359.13;4916039;29;20170;-71
2021/10/23 06:45:16;;;;;;;12.75;3.60;;;;;;;8.74;53.71;98349.81;4916602;29;20200;-92
2021/10/23 06:47:43;;;;;;;8.23;3.00;;;;;;;8.85;53.14;98345.63;4915470;29;20088;-87
2021/10/23 06:50:12;;;;;;;10.07;3.20;;;;;;;9.00;52.96;98360.63;4881383;29;20047;-90
2021/10/23 06:52:39;;;;;;;10.88;3.08;;;;;;;8.98;52.60;98355.53;4900461;29;20051;-74
2021/10/23 06:55:06;;;;;;;16.98;3.20;;;;;;;9.09;52.40;98362.22;4904606;29;20491;-74
2021/10/23 06:57:33;;;;;;;16.83;3.95;;;;;;;8.85;52.16;98338.25;4906242;29;20780;-75
2021/10/23 06:59:59;;;;;;;11.35;3.63;;;;;;;9.03;52.68;98351.81;4894675;29;20473;-82
2021/10/23 07:02:25;;;;;;;14.70;3.53;;;;;;;9.01;52.27;98356.81;4893118;29;20120;-78
2021/10/23 07:04:51;;;;;;;14.52;3.22;;;;;;;8.99;53.02;98359.84;4896276;29;20036;-89
2021/10/23 07:07:17;;;;;;;12.73;3.10;;;;;;;8.85;52.77;98337.44;4896292;29;20649;-73
2021/10/23 07:09:43;;;;;;;11.70;3.13;;;;;;;8.92;52.47;98352.16;4896856;29;20036;-75
2021/10/23 07:12:10;;;;;;;10.77;2.97;;;;;;;8.88;52.87;98361.34;4914403;29;20047;-74
2021/10/23 07:14:35;;;;;;;15.57;3.30;;;;;;;8.84;52.54;98368.53;4914172;29;20119;-74
2021/10/23 07:17:01;;;;;;;21.95;3.90;;;;;;;8.87;52.99;98367.88;4913294;29;20064;-82
2021/10/23 07:19:27;;;;;;;18.55;6.90;;;;;;;8.88;52.98;98364.84;4914279;29;20100;-75
2021/10/23 07:21:53;;;;;;;18.27;4.55;;;;;;;8.82;52.69;98347.06;4914682;29;20039;-75
2021/10/23 07:24:20;;;;;;;14.85;4.78;;;;;;;8.94;52.70;98357.31;4908018;29;20050;-75
2021/10/23 07:26:47;;;;;;;10.32;4.15;;;;;;;8.90;52.58;98345.44;4895218;29;20505;-84
2021/10/23 07:29:14;;;;;;;13.57;4.18;;;;;;;8.92;52.46;98359.56;4900319;29;20047;-81
2021/10/23 07:31:41;;;;;;;17.90;4.60;;;;;;;8.96;52.74;98368.66;4903576;29;20166;-89
2021/10/23 07:34:07;;;;;;;21.73;5.70;;;;;;;8.85;52.83;98351.88;4912001;29;20056;-83
2021/10/23 07:36:35;;;;;;;;;;;;;;;8.91;53.11;98361.47;4902505;29;20292;-85
2021/10/23 07:39:02;;;;;;;21.00;7.60;;;;;;;8.84;52.78;98363.09;4905586;29;20047;-83
2021/10/23 07:41:28;;;;;;;11.80;4.65;;;;;;;8.66;52.69;98337.81;4911383;29;20048;-87
2021/10/23 07:43:54;;;;;;;21.20;9.43;;;;;;;8.80;53.42;98356.69;4914234;29;20051;-85
2021/10/23 07:46:20;;;;;;;17.63;4.68;;;;;;;8.75;52.93;98352.22;4886296;29;20078;-83
2021/10/23 07:48:46;;;;;;;9.75;3.42;;;;;;;8.83;53.07;98364.22;4915124;29;20043;-88
2021/10/23 07:51:12;;;;;;;17.80;4.32;;;;;;;8.54;53.45;98322.13;4918189;29;20123;-84
2021/10/23 07:53:38;;;;;;;15.82;3.72;;;;;;;8.74;53.12;98350.63;4918881;29;20039;-90
2021/10/23 07:56:05;;;;;;;11.55;3.85;;;;;;;8.82;52.84;98378.97;4893754;29;20049;-88
2021/10/23 07:58:32;;;;;;;9.90;3.15;;;;;;;8.77;52.95;98371.75;4895497;29;20049;-85
2021/10/23 08:00:59;;;;;;;17.63;3.92;;;;;;;8.77;53.37;98381.84;4899756;29;20096;-82
2021/10/23 08:03:25;;;;;;;10.93;3.10;;;;;;;8.73;52.96;98364.56;4900403;29;20048;-85
2021/10/23 08:05:52;;;;;;;;;;;;;;;8.83;53.50;98386.81;4884364;29;20033;-73
2021/10/23 08:08:18;;;;;;;38.37;17.43;;;;;;;8.96;53.44;98386.94;4903582;29;20307;-77
2021/10/23 08:10:44;;;;;;;19.17;6.03;;;;;;;8.92;53.35;98382.16;4907762;29;20578;-80
2021/10/23 08:13:10;;;;;;;15.20;4.55;;;;;;;9.03;53.66;98379.88;4904807;29;20143;-77
2021/10/23 08:15:37;;;;;;;18.40;4.90;;;;;;;9.11;53.09;98387.22;4911931;29;20063;-75
2021/10/23 08:18:03;;;;;;;9.30;3.80;;;;;;;8.96;52.86;98365.94;4913297;29;20036;-85
2021/10/23 08:23:55;;;;;;;13.48;4.47;;;;;;;8.88;52.95;98353.16;4895434;29;20045;-92
2021/10/23 08:26:27;;;;;;;11.20;4.05;;;;;;;9.17;52.71;98380.47;4903486;29;20052;-94
2021/10/23 08:28:57;;;;;;;16.75;4.18;;;;;;;8.87;52.96;98330.56;4901459;29;20040;-92
2021/10/23 08:31:24;;;;;;;13.15;5.07;;;;;;;9.30;52.26;98386.81;4881364;29;20095;-79
2021/10/23 08:34:05;;;;;;;43.75;16.70;;;;;;;9.39;52.25;98386.78;4906583;29;20037;-94
2021/10/23 08:36:36;;;;;;;19.90;7.65;;;;;;;8.78;52.17;98307.97;4885377;29;20070;-93
2021/10/23 08:44:44;;;;;;;18.13;6.60;;;;;;;9.29;51.60;98340.81;4919929;29;20517;-93
2021/10/23 08:47:41;;;;;;;20.98;8.50;;;;;;;9.64;51.69;98404.19;4896570;29;20055;-94
2021/10/23 08:50:36;;;;;;;14.32;5.55;;;;;;;9.55;51.82;98401.50;4911967;29;20048;-95
2021/10/23 08:53:22;;;;;;;16.58;4.60;;;;;;;9.66;52.15;98396.44;4876995;29;20037;-92
2021/10/23 08:56:11;;;;;;;16.75;5.63;;;;;;;9.64;51.60;98396.78;4873445;29;20049;-93
2021/10/23 08:59:07;;;;;;;11.10;4.40;;;;;;;9.71;52.38;98399.00;4901925;29;20064;-92
2021/10/23 09:01:35;;;;;;;13.73;4.78;;;;;;;9.50;51.90;98379.84;4889512;29;20044;-91
2021/10/23 09:04:30;;;;;;;17.88;4.55;;;;;;;9.56;51.68;98405.81;4880597;29;20447;-95
2021/10/23 09:08:22;;;;;;;10.68;4.22;;;;;;;9.56;53.89;98408.53;4903942;29;20156;-89
2021/10/23 09:10:53;;;;;;;14.50;4.45;;;;;;;8.96;53.63;98337.91;4854097;29;20052;-93
2021/10/23 09:16:18;;;;;;;22.25;5.30;;;;;;;9.13;54.23;98344.06;4868020;29;20088;-92
2021/10/23 09:18:49;;;;;;;12.07;4.65;;;;;;;9.59;54.10;98398.91;4878167;29;20101;-96
2021/10/23 09:21:23;;;;;;;15.50;4.68;;;;;;;9.36;53.87;98360.19;4865864;29;20132;-95
2021/10/23 09:28:27;;;;;;;19.73;4.93;;;;;;;9.29;54.28;98404.31;4976131;23;20093;-94
2021/10/23 09:31:45;;;;;;;23.08;5.18;;;;;;;9.25;54.46;98408.03;4992866;23;20064;-95
2021/10/23 09:34:35;;;;;;;11.10;3.58;;;;;;;9.36;53.43;98401.88;4910775;29;20594;-79
2021/10/23 09:37:03;;;;;;;31.02;9.50;;;;;;;9.36;53.45;98393.69;4893839;29;20040;-88
2021/10/23 09:39:31;;;;;;;12.68;4.90;;;;;;;9.36;53.06;98399.16;4860338;29;20141;-86
2021/10/23 09:42:18;;;;;;;16.60;5.30;;;;;;;9.07;52.88;98367.22;4908040;29;20042;-82
2021/10/23 09:45:11;;;;;;;20.58;5.10;;;;;;;9.26;53.27;98401.44;4857217;29;20104;-84
2021/10/23 09:47:38;;;;;;;15.70;4.50;;;;;;;9.28;53.44;98404.66;4900946;29;20040;-82
2021/10/23 09:50:10;;;;;;;19.85;5.80;;;;;;;9.10;53.09;98391.06;4913679;29;20608;-88
2021/10/23 09:53:11;;;;;;;15.27;5.80;;;;;;;9.18;52.80;98406.59;4876363;29;20066;-86
2021/10/23 09:55:52;;;;;;;23.02;8.05;;;;;;;9.36;53.33;98404.59;4915012;29;20097;-86
2021/10/23 09:58:25;;;;;;;14.63;5.63;;;;;;;9.32;52.96;98372.88;4914994;29;20040;-92
2021/10/23 10:00:53;;;;;;;20.17;5.10;;;;;;;9.52;51.96;98404.88;4891649;29;20083;-75
2021/10/23 10:03:22;;;;;;;12.93;4.50;;;;;;;9.56;52.18;98402.28;4899885;29;20040;-94
2021/10/23 10:05:56;;;;;;;14.95;5.80;;;;;;;9.62;52.33;98407.22;4908390;29;20051;-86
2021/10/23 10:08:23;;;;;;;17.02;5.65;;;;;;;9.79;52.24;98411.78;4904167;29;20041;-83
2021/10/23 10:10:50;;;;;;;16.58;6.15;;;;;;;9.87;51.94;98402.75;4899340;29;20048;-87
2021/10/23 10:13:24;;;;;;;15.00;6.30;;;;;;;9.81;51.30;98384.19;4897459;29;20044;-89
2021/10/23 10:15:52;;;;;;;21.35;6.00;;;;;;;9.85;50.87;98388.63;4905075;29;20040;-93
2021/10/23 10:18:20;;;;;;;19.20;7.35;;;;;;;10.01;51.63;98402.50;4912235;29;20049;-94
2021/10/23 10:20:55;;;;;;;18.00;6.10;;;;;;;10.11;50.92;98402.13;4909237;29;20494;-87
2021/10/23 10:23:35;;;;;;;20.80;6.10;;;;;;;10.21;50.12;98400.94;4920380;29;20054;-95
2021/10/23 10:26:19;;;;;;;18.90;5.60;;;;;;;10.24;49.61;98410.41;4903577;29;20116;-88
2021/10/23 10:29:22;;;;;;;18.10;6.85;;;;;;;10.41;50.06;98420.41;4910719;29;20087;-85
2021/10/23 10:32:21;;;;;;;18.73;6.72;;;;;;;10.47;49.78;98424.56;4905617;29;20167;-86
2021/10/23 10:37:43;;;;;;;13.95;5.22;;;;;;;10.39;49.62;98431.66;4881164;29;20043;-83
2021/10/23 10:40:43;;;;;;;10.88;5.00;;;;;;;10.28;49.30;98425.00;4878748;29;20049;-83
2021/10/23 10:43:18;;;;;;;12.30;5.07;;;;;;;10.25;49.45;98436.56;4879953;29;20057;-82
2021/10/23 10:45:51;;;;;;;24.23;6.97;;;;;;;9.94;49.40;98404.97;4879122;29;20499;-84
2021/10/23 10:48:26;;;;;;;17.85;6.00;;;;;;;10.19;49.81;98435.94;4890969;29;20059;-72
2021/10/23 10:51:07;;;;;;;19.23;5.47;;;;;;;10.06;49.39;98423.34;4880059;29;20045;-77
2021/10/23 10:53:35;;;;;;;12.15;4.82;;;;;;;10.18;49.96;98442.56;4878257;29;20052;-85
2021/10/23 10:56:14;;;;;;;20.05;5.35;;;;;;;10.18;49.15;98444.50;4872206;29;20052;-74
2021/10/23 10:58:47;;;;;;;12.27;4.78;;;;;;;10.17;49.73;98434.72;4865592;29;20049;-76
2021/10/23 11:01:24;;;;;;;10.45;5.20;;;;;;;10.23;49.46;98433.34;4866313;29;20148;-85
2021/10/23 11:04:02;;;;;;;11.65;4.75;;;;;;;10.32;48.94;98445.06;4867177;29;20471;-74
2021/10/23 11:06:35;;;;;;;14.20;5.30;;;;;;;10.38;49.32;98454.66;4865498;29;20097;-75
2021/10/23 11:09:11;;;;;;;16.13;5.88;;;;;;;10.39;49.13;98448.06;4866326;29;20148;-78
2021/10/23 11:11:59;;;;;;;15.52;5.85;;;;;;;10.29;49.26;98451.19;4864838;29;20775;-75
2021/10/23 11:14:31;;;;;;;15.10;4.85;;;;;;;10.09;49.13;98450.00;4858817;29;20053;-75
2021/10/23 11:17:01;;;;;;;17.38;4.68;;;;;;;10.00;49.18;98450.06;4866169;29;20084;-76
2021/10/23 11:19:29;;;;;;;14.27;5.10;;;;;;;9.97;49.56;98455.38;4864891;29;20053;-76
2021/10/23 11:22:02;;;;;;;12.60;4.38;;;;;;;9.87;49.44;98443.72;4864959;29;20902;-76
2021/10/23 11:24:50;;;;;;;13.50;5.03;;;;;;;9.95;49.19;98444.78;4865527;29;20045;-81
2021/10/23 11:27:33;;;;;;;14.40;5.13;;;;;;;9.93;49.31;98455.22;4864880;29;20160;-75
2021/10/23 11:30:20;;;;;;;14.90;6.05;;;;;;;9.87;49.73;98454.63;4865818;29;20045;-76
2021/10/23 11:32:52;;;;;;;19.48;5.47;;;;;;;9.88;51.21;98458.16;4884634;29;20044;-75
2021/10/23 11:35:33;;;;;;;20.90;5.32;;;;;;;9.87;49.58;98468.28;4884605;29;20578;-75
2021/10/23 11:38:04;;;;;;;14.50;4.68;;;;;;;9.87;49.72;98453.84;4885234;29;20048;-74
2021/10/23 11:40:32;;;;;;;13.63;5.00;;;;;;;10.03;49.44;98464.97;4868633;29;20048;-77
2021/10/23 11:42:58;;;;;;;16.38;5.13;;;;;;;10.07;49.19;98460.47;4892264;29;20049;-77
2021/10/23 11:45:32;;;;;;;17.48;5.13;;;;;;;10.13;49.12;98464.59;4894833;29;20055;-77
2021/10/23 11:48:08;;;;;;;13.15;5.68;;;;;;;10.19;49.03;98459.75;4896767;29;20040;-76
2021/10/23 11:50:36;;;;;;;19.52;6.88;;;;;;;10.25;49.04;98467.41;4896858;29;20056;-76
2021/10/23 11:53:10;;;;;;;15.52;5.90;;;;;;;10.22;48.72;98456.34;4897727;29;20049;-91
2021/10/23 11:55:43;;;;;;;31.80;11.38;;;;;;;10.18;49.36;98455.41;4864945;29;20511;-82
2021/10/23 11:58:17;;;;;;;31.02;13.50;;;;;;;10.15;49.64;98434.22;4896100;29;20116;-82
2021/10/23 12:00:47;;;;;;;14.27;5.63;;;;;;;10.28;49.24;98455.84;4897090;29;20049;-83
2021/10/23 12:03:15;;;;;;;11.85;5.28;;;;;;;10.18;48.63;98455.41;4897294;29;20074;-81
2021/10/23 12:05:49;;;;;;;14.57;5.43;;;;;;;10.21;49.58;98457.50;4896809;29;20047;-82
2021/10/23 12:08:18;;;;;;;17.60;5.07;;;;;;;10.16;48.25;98466.66;4880085;29;20414;-83
2021/10/23 12:11:22;;;;;;;15.80;5.22;;;;;;;10.13;48.94;98467.31;4865212;29;20087;-85